Amsterdam, MT

3:29 PM MST on February 12, 2016 (GMT -0700)
Churchill MT | | Change Station
CLOSE
Current Station
Personal Weather Station
Location: Manhattan, MT
Elevation: 4583 ft
Nearby Weather Stations

Elev 4583 ft 45.75 °N, 111.31 °W | Updated 11 minutes ago

Partly Cloudy
Partly Cloudy
46.8 °F
Feels Like 47 °F
N
0.0
Wind Variable Wind from SSE
Gusts 4.0 mph

Today
High -- | Low -- °F
--% Chance of Precip.
Yesterday
High -- | Low -- °F
Precip. -- in
Pressure 30.19 in
Visibility 10.0 miles
Clouds Scattered Clouds 12000 ft
Windchill 47 °F
Dew Point 37 °F
Humidity 69%
Rainfall 0.00 in
Snow Depth Not available.
7:32 AM 5:47 PM
Waxing Crescent, 24% visible
METAR KBZN 122156Z AUTO 00000KT 10SM SCT120 05/01 A3014 RMK AO2 SLP222 T00500011
Pressure 30.19 in
Visibility 10.0 miles
Clouds Scattered Clouds 12000 ft
Windchill 47 °F
Dew Point 37 °F
Humidity 69%
Rainfall 0.00 in
Snow Depth Not available.
7:32 AM 5:47 PM
Waxing Crescent, 24% visible
METAR KBZN 122156Z AUTO 00000KT 10SM SCT120 05/01 A3014 RMK AO2 SLP222 T00500011

10-Day Weather Forecast

Almanac

Astronomy

Feb. 12, 2016 Rise Set
Actual Time
Civil Twilight
Nautical Twilight
Astronomical Twilight
Moon
Length of Visible Light
Length of Day
Tomorrow will be .
, % of the Moon is Illuminated

Today's Extremes

State Highs State Lows

Community

WunderPhotos

Upload Photos

1,892,421 photos uploaded!

WunderBlog® & News

Nearby

Air Quality

  Air Quality AQ Index Pollutant
Not available.

Snow Depth

Station Depth Elevation

Earthquake Activity

City Distance Mag. Time & Date
Minimum magnitude displayed is 2.5.

Coastal Water Temperatures

Place Temperature

Stations

Nearby Weather Stations

Station Location Temp. Windchill Dew Point Humidity Wind Precip. Elev Updated Type
                   

Watches & Warnings

There are currently no watches in effect.